createdAt,value
2018-08-07T11:21:43.909Z,1011.75
2018-08-07T11:22:43.938Z,1011.69
2018-08-07T11:23:43.979Z,1011.76
2018-08-07T11:24:44.066Z,1011.80
2018-08-07T11:25:44.052Z,1011.83
2018-08-07T11:26:44.095Z,1011.86
2018-08-07T11:27:44.121Z,1011.82
2018-08-07T11:28:44.161Z,1011.80
2018-08-07T11:29:44.197Z,1011.86
2018-08-07T11:30:44.241Z,1011.83
2018-08-07T11:31:44.284Z,1011.80
2018-08-07T11:32:44.324Z,1011.73
2018-08-07T11:33:44.358Z,1011.69
2018-08-07T11:34:44.398Z,1011.68
2018-08-07T11:35:44.435Z,1011.44
2018-08-07T11:36:44.482Z,1011.41
2018-08-07T11:37:44.511Z,1011.14
2018-08-07T11:38:44.553Z,1011.29
2018-08-07T11:39:44.595Z,1011.33
2018-08-07T11:40:44.632Z,1011.46
2018-08-07T11:41:44.674Z,1011.51
2018-08-07T11:42:44.712Z,1011.53
2018-08-07T11:43:44.752Z,1011.47
2018-08-07T11:44:44.795Z,1011.52
2018-08-07T11:45:44.842Z,1011.52
2018-08-07T11:46:44.869Z,1011.58
2018-08-07T11:47:44.917Z,1011.52
2018-08-07T11:48:44.952Z,1011.46
2018-08-07T11:49:44.982Z,1011.47
2018-08-07T11:50:45.025Z,1011.46
2018-08-07T11:51:45.064Z,1011.42
2018-08-07T11:52:45.102Z,1011.42
2018-08-07T11:53:45.140Z,1011.38
2018-08-07T11:54:46.196Z,1011.44
2018-08-07T11:55:45.228Z,1011.39
2018-08-07T11:56:45.267Z,1011.37
2018-08-07T11:57:45.318Z,1011.38
2018-08-07T11:58:45.348Z,1011.37
2018-08-07T11:59:45.390Z,1011.36
2018-08-07T12:00:45.432Z,1011.34
2018-08-07T12:01:45.486Z,1011.41
2018-08-07T12:02:45.512Z,1011.40
2018-08-07T12:03:48.186Z,1011.46
2018-08-07T12:04:45.591Z,1011.39
2018-08-07T12:05:45.639Z,1011.42
2018-08-07T12:06:45.685Z,1011.44
2018-08-07T12:07:45.720Z,1011.36
2018-08-07T12:08:45.755Z,1011.42
2018-08-07T12:09:45.798Z,1011.34
2018-08-07T12:10:45.846Z,1011.32
2018-08-07T12:11:45.888Z,1011.35
2018-08-07T12:12:45.928Z,1011.21
2018-08-07T12:13:45.977Z,1011.40
2018-08-07T12:14:46.010Z,1011.44
2018-08-07T12:15:46.057Z,1011.43
2018-08-07T12:16:46.101Z,1011.40
2018-08-07T12:17:46.145Z,1011.45
2018-08-07T12:18:46.186Z,1011.47
2018-08-07T12:19:46.224Z,1011.38
2018-08-07T12:20:46.266Z,1011.37
2018-08-07T12:21:46.338Z,1011.30
2018-08-07T12:22:46.365Z,1011.30
2018-08-07T12:23:46.401Z,1011.28
2018-08-07T12:24:46.443Z,1011.25
2018-08-07T12:25:46.485Z,1011.23
2018-08-07T12:26:46.527Z,1011.21
2018-08-07T12:27:46.630Z,1011.18
2018-08-07T12:28:46.613Z,1011.16
2018-08-07T12:29:46.657Z,1011.16
2018-08-07T12:30:46.705Z,1011.16
2018-08-07T12:31:46.750Z,1011.18
2018-08-07T12:32:46.791Z,1011.12
2018-08-07T12:33:46.836Z,1011.10
2018-08-07T12:34:46.879Z,1011.10
2018-08-07T12:35:46.925Z,1011.13
2018-08-07T12:36:46.967Z,1011.14
2018-08-07T12:37:47.005Z,1011.15
2018-08-07T12:38:47.054Z,1011.12
2018-08-07T12:39:47.095Z,1011.22
2018-08-07T12:40:47.144Z,1011.21
2018-08-07T12:41:47.184Z,1011.22
2018-08-07T12:42:47.230Z,1011.25
2018-08-07T12:43:47.275Z,1011.24
2018-08-07T12:44:47.317Z,1011.25
2018-08-07T12:45:47.361Z,1011.30
2018-08-07T12:46:47.420Z,1011.38
2018-08-07T12:47:47.453Z,1011.36
2018-08-07T12:48:47.500Z,1011.29
2018-08-07T12:49:47.543Z,1011.28
2018-08-07T12:50:47.589Z,1011.23
2018-08-07T12:51:47.636Z,1011.17
2018-08-07T12:52:47.683Z,1011.29
2018-08-07T12:53:47.724Z,1011.28
2018-08-07T12:54:47.776Z,1011.34
2018-08-07T12:55:47.817Z,1011.32
2018-08-07T12:56:47.863Z,1011.32
2018-08-07T12:57:47.906Z,1011.27
2018-08-07T12:58:47.954Z,1011.13
2018-08-07T12:59:48.004Z,1011.00
2018-08-07T13:00:48.051Z,1010.89
2018-08-07T13:01:48.095Z,1010.92
2018-08-07T13:02:48.139Z,1010.86
2018-08-07T13:03:48.181Z,1010.87
2018-08-07T13:04:48.231Z,1010.81
2018-08-07T13:05:48.277Z,1010.82
2018-08-07T13:06:48.361Z,1010.85
2018-08-07T13:07:48.369Z,1010.81
2018-08-07T13:08:48.421Z,1010.79
2018-08-07T13:09:48.462Z,1010.90
2018-08-07T13:10:48.503Z,1010.89
2018-08-07T13:11:48.549Z,1010.86
2018-08-07T13:12:48.601Z,1010.90
2018-08-07T13:13:48.644Z,1010.94
2018-08-07T13:14:48.687Z,1010.90
2018-08-07T13:15:48.735Z,1010.84
2018-08-07T13:16:48.781Z,1010.88
2018-08-07T13:17:48.825Z,1010.91
2018-08-07T13:18:48.867Z,1010.85
2018-08-07T13:19:48.919Z,1010.78
2018-08-07T13:20:48.969Z,1010.83
2018-08-07T13:21:49.038Z,1010.43
2018-08-07T13:22:49.051Z,1010.88
2018-08-07T13:23:49.099Z,1010.89
2018-08-07T13:24:49.145Z,1010.87
2018-08-07T13:25:49.194Z,1010.43
2018-08-07T13:26:49.233Z,1010.83
2018-08-07T13:27:49.279Z,1010.82
2018-08-07T13:28:49.323Z,1010.57
2018-08-07T13:29:49.362Z,1010.34
2018-08-07T13:30:49.415Z,1010.70
2018-08-07T13:31:49.456Z,1010.42
2018-08-07T13:32:49.506Z,1010.76
2018-08-07T13:33:49.546Z,1010.78
2018-08-07T13:34:49.583Z,1010.76
2018-08-07T13:35:49.631Z,1010.80
2018-08-07T13:36:49.686Z,1010.79
2018-08-07T13:37:49.717Z,1010.81
2018-08-07T13:38:49.765Z,1010.82
2018-08-07T13:39:49.809Z,1010.81
2018-08-07T13:40:49.847Z,1010.78
2018-08-07T13:41:49.891Z,1010.80
2018-08-07T13:42:49.938Z,1010.75
2018-08-07T13:43:49.979Z,1010.73
2018-08-07T13:44:50.027Z,1010.31
2018-08-07T13:45:50.068Z,1010.26
2018-08-07T13:46:50.113Z,1010.27
2018-08-07T13:47:50.163Z,1010.52
2018-08-07T13:48:50.197Z,1010.70
2018-08-07T13:49:50.243Z,1010.74
2018-08-07T13:50:50.289Z,1010.63
2018-08-07T13:51:50.327Z,1010.57
2018-08-07T13:52:50.376Z,1010.59
2018-08-07T13:53:50.417Z,1010.58
2018-08-07T13:54:50.466Z,1010.58
2018-08-07T13:55:50.510Z,1010.58
2018-08-07T13:56:50.572Z,1010.60
2018-08-07T13:57:50.596Z,1010.63
2018-08-07T13:58:50.636Z,1010.66
2018-08-07T13:59:50.683Z,1010.61
2018-08-07T14:00:50.725Z,1010.68
2018-08-07T14:01:50.769Z,1010.69
2018-08-07T14:02:50.815Z,1010.69
2018-08-07T14:03:50.854Z,1010.71
2018-08-07T14:04:50.898Z,1010.66
2018-08-07T14:05:50.947Z,1010.69
2018-08-07T14:06:50.988Z,1010.65
2018-08-07T14:07:51.031Z,1010.68
2018-08-07T14:08:51.077Z,1010.65
2018-08-07T14:09:51.120Z,1010.68
2018-08-07T14:10:51.168Z,1010.75
2018-08-07T14:11:51.208Z,1010.65
2018-08-07T14:12:51.254Z,1010.68
2018-08-07T14:13:51.297Z,1010.66
2018-08-07T14:14:51.347Z,1010.62
2018-08-07T14:15:51.391Z,1010.30
2018-08-07T14:16:51.437Z,1010.11
2018-08-07T14:17:51.478Z,1010.09
2018-08-07T14:18:51.519Z,1010.43
2018-08-07T14:19:51.565Z,1010.05
2018-08-07T14:20:51.615Z,1010.34
2018-08-07T14:21:51.653Z,1010.44
2018-08-07T14:22:51.697Z,1010.29
2018-08-07T14:23:51.743Z,1010.34
2018-08-07T14:24:51.781Z,1010.05
2018-08-07T14:25:51.831Z,1010.14
2018-08-07T14:26:51.863Z,1010.09
2018-08-07T14:27:51.911Z,1010.14
2018-08-07T14:28:52.022Z,1010.16
2018-08-07T14:29:51.991Z,1010.14
2018-08-07T14:30:52.027Z,1010.49
2018-08-07T14:31:52.073Z,1010.25
2018-08-07T14:32:52.109Z,1010.44
2018-08-07T14:33:52.147Z,1010.47
2018-08-07T14:34:52.189Z,1010.46
2018-08-07T14:35:52.231Z,1010.47
2018-08-07T14:36:52.364Z,1010.48
2018-08-07T14:37:52.309Z,1010.46
2018-08-07T14:38:52.349Z,1010.42
2018-08-07T14:39:52.391Z,1010.46
2018-08-07T14:40:52.430Z,1010.45
2018-08-07T14:41:52.479Z,1010.46
2018-08-07T14:42:52.517Z,1010.42
2018-08-07T14:43:52.556Z,1010.40
2018-08-07T14:44:52.605Z,1010.38
2018-08-07T14:45:52.642Z,1010.41
2018-08-07T14:46:52.679Z,1010.38
2018-08-07T14:47:52.771Z,1010.39
2018-08-07T14:48:52.766Z,1010.43
2018-08-07T14:49:52.811Z,1010.38
2018-08-07T14:50:52.855Z,1010.38
2018-08-07T14:51:52.896Z,1010.28
2018-08-07T14:52:52.942Z,1010.28
2018-08-07T14:53:52.981Z,1010.25
2018-08-07T14:54:53.025Z,1010.18
2018-08-07T14:55:53.064Z,1010.22
2018-08-07T14:56:53.113Z,1010.19
2018-08-07T14:57:53.149Z,1010.21
2018-08-07T14:58:53.199Z,1010.20
2018-08-07T14:59:53.235Z,1010.20
2018-08-07T15:00:53.288Z,1010.16
2018-08-07T15:01:53.329Z,1010.11
2018-08-07T15:02:53.364Z,1010.13
2018-08-07T15:03:53.417Z,1010.09
2018-08-07T15:04:53.454Z,1010.14
2018-08-07T15:05:53.494Z,1010.12
2018-08-07T15:06:53.549Z,1010.03
2018-08-07T15:07:53.582Z,1009.96
2018-08-07T15:08:53.627Z,1010.08
2018-08-07T15:09:53.679Z,1010.07
2018-08-07T15:10:53.713Z,1010.02
2018-08-07T15:11:53.775Z,1010.04
2018-08-07T15:12:53.799Z,1010.04
2018-08-07T15:13:53.845Z,1009.97
2018-08-07T15:14:53.885Z,1009.93
2018-08-07T15:15:53.936Z,1009.96
2018-08-07T15:16:53.975Z,1009.92
2018-08-07T15:17:54.022Z,1009.95
2018-08-07T15:18:54.061Z,1009.98
2018-08-07T15:19:54.113Z,1009.91
2018-08-07T15:20:54.225Z,1009.93
2018-08-07T15:21:54.193Z,1009.86
2018-08-07T15:22:54.235Z,1009.82
2018-08-07T15:23:54.282Z,1009.86
2018-08-07T15:24:54.325Z,1009.85
2018-08-07T15:25:54.369Z,1009.84
2018-08-07T15:26:54.416Z,1009.87
2018-08-07T15:27:54.454Z,1009.80
2018-08-07T15:28:54.497Z,1009.79
2018-08-07T15:29:54.546Z,1009.80
2018-08-07T15:30:54.594Z,1009.82
2018-08-07T15:31:54.629Z,1009.79
2018-08-07T15:32:54.675Z,1009.74
2018-08-07T15:33:54.714Z,1009.72
2018-08-07T15:34:54.768Z,1009.71
2018-08-07T15:35:54.803Z,1009.69
2018-08-07T15:36:54.844Z,1009.68
2018-08-07T15:37:54.892Z,1009.68
2018-08-07T15:38:54.952Z,1009.69
2018-08-07T15:39:54.977Z,1009.71
2018-08-07T15:40:55.020Z,1009.66
2018-08-07T15:41:55.069Z,1009.63
2018-08-07T15:42:55.131Z,1009.62
2018-08-07T15:43:55.151Z,1009.55
2018-08-07T15:44:55.192Z,1009.45
2018-08-07T15:45:55.235Z,1009.31
2018-08-07T15:46:55.281Z,1009.32
2018-08-07T15:47:55.322Z,1009.23
2018-08-07T15:48:55.371Z,1009.20
2018-08-07T15:49:55.403Z,1009.25
2018-08-07T15:50:55.448Z,1009.39
2018-08-07T15:51:55.488Z,1009.46
2018-08-07T15:52:55.551Z,1009.22
2018-08-07T15:53:55.572Z,1009.11
2018-08-07T15:54:55.611Z,1009.20
2018-08-07T15:55:55.652Z,1009.18
2018-08-07T15:56:55.695Z,1009.09
2018-08-07T15:57:55.735Z,1009.07
2018-08-07T15:58:55.773Z,1009.07
2018-08-07T15:59:55.811Z,1009.01
2018-08-07T16:00:55.855Z,1009.07
2018-08-07T16:01:55.891Z,1008.96
2018-08-07T16:02:55.927Z,1008.96
2018-08-07T16:03:55.967Z,1008.96
2018-08-07T16:04:56.020Z,1008.90
2018-08-07T16:05:56.045Z,1008.93
2018-08-07T16:06:56.085Z,1008.95
2018-08-07T16:07:56.123Z,1008.89
2018-08-07T16:08:56.163Z,1008.95
2018-08-07T16:09:56.197Z,1008.99
2018-08-07T16:10:56.233Z,1008.96
2018-08-07T16:11:56.273Z,1008.86
2018-08-07T16:12:56.311Z,1008.84
2018-08-07T16:13:56.348Z,1008.81
2018-08-07T16:14:56.395Z,1008.83
2018-08-07T16:15:56.422Z,1008.82
2018-08-07T16:16:56.596Z,1008.86
2018-08-07T16:17:56.499Z,1008.83
2018-08-07T16:18:56.531Z,1008.83
2018-08-07T16:19:56.573Z,1008.86
2018-08-07T16:20:56.614Z,1008.90
2018-08-07T16:21:56.640Z,1008.78
2018-08-07T16:22:56.678Z,1008.78
2018-08-07T16:23:56.719Z,1008.80
2018-08-07T16:24:56.749Z,1008.75
2018-08-07T16:25:56.786Z,1008.79
2018-08-07T16:26:56.820Z,1008.78
2018-08-07T16:27:56.947Z,1008.79
2018-08-07T16:28:56.897Z,1008.73
2018-08-07T16:29:56.980Z,1008.73
2018-08-07T16:30:56.968Z,1008.71
2018-08-07T16:31:57.005Z,1008.66
2018-08-07T16:32:57.040Z,1008.67
2018-08-07T16:33:57.079Z,1008.64
2018-08-07T16:34:57.113Z,1008.63
2018-08-07T16:35:57.151Z,1008.59
2018-08-07T16:36:57.188Z,1008.61
2018-08-07T16:37:57.217Z,1008.60
2018-08-07T16:38:57.250Z,1008.59
2018-08-07T16:39:57.290Z,1008.62
2018-08-07T16:40:57.327Z,1008.58
2018-08-07T16:41:57.359Z,1008.51
2018-08-07T16:42:57.397Z,1008.52
2018-08-07T16:43:57.433Z,1008.52
2018-08-07T16:44:57.465Z,1008.48
2018-08-07T16:45:57.503Z,1008.53
2018-08-07T16:46:57.531Z,1008.48
2018-08-07T16:47:57.571Z,1008.50
2018-08-07T16:48:57.603Z,1008.50
2018-08-07T16:49:57.647Z,1008.51
2018-08-07T16:50:57.672Z,1008.52
2018-08-07T16:51:57.712Z,1008.50
2018-08-07T16:52:57.748Z,1008.48
2018-08-07T16:53:57.779Z,1008.46
2018-08-07T16:54:57.816Z,1008.49
2018-08-07T16:55:57.847Z,1008.63
2018-08-07T16:56:57.911Z,1008.63
2018-08-07T16:57:58.929Z,1008.63
2018-08-07T16:58:57.950Z,1008.52
2018-08-07T16:59:57.993Z,1008.48
2018-08-07T17:00:58.019Z,1008.51
2018-08-07T17:01:58.057Z,1008.56
2018-08-07T17:02:58.094Z,1008.63
2018-08-07T17:03:58.130Z,1008.77
2018-08-07T17:04:58.159Z,1008.88
2018-08-07T17:05:58.195Z,1008.92
2018-08-07T17:06:58.240Z,1008.82
2018-08-07T17:07:58.269Z,1008.89
2018-08-07T17:08:58.304Z,1008.86
2018-08-07T17:09:58.341Z,1008.86
2018-08-07T17:10:58.378Z,1008.88
2018-08-07T17:11:58.415Z,1008.89
2018-08-07T17:12:58.455Z,1008.88
2018-08-07T17:13:58.885Z,1008.87
2018-08-07T17:14:58.531Z,1008.91
2018-08-07T17:15:58.566Z,1008.95
2018-08-07T17:16:58.593Z,1008.95
2018-08-07T17:17:58.645Z,1008.91
2018-08-07T17:18:58.663Z,1009.00
2018-08-07T17:19:58.700Z,1008.95
2018-08-07T17:20:58.740Z,1008.97
2018-08-07T17:21:58.825Z,1008.89
2018-08-07T17:22:58.810Z,1008.91
2018-08-07T17:23:58.850Z,1008.93
2018-08-07T17:24:58.908Z,1008.91
2018-08-07T17:25:58.923Z,1008.91
2018-08-07T17:26:58.961Z,1008.90
2018-08-07T17:27:59.065Z,1008.95
2018-08-07T17:28:59.240Z,1008.88
2018-08-07T17:29:59.070Z,1008.89
2018-08-07T17:30:59.105Z,1008.89
2018-08-07T17:31:59.147Z,1008.85
2018-08-07T17:32:59.188Z,1008.89
2018-08-07T17:33:59.226Z,1008.81
2018-08-07T17:34:59.252Z,1008.80
2018-08-07T17:35:59.293Z,1008.81
2018-08-07T17:36:59.328Z,1008.81
2018-08-07T17:37:59.366Z,1008.81
2018-08-07T17:38:59.410Z,1008.82
2018-08-07T17:39:59.442Z,1008.77
2018-08-07T17:40:59.482Z,1008.77
2018-08-07T17:41:59.515Z,1008.80
2018-08-07T17:42:59.559Z,1008.80
2018-08-07T17:43:59.588Z,1008.80
2018-08-07T17:44:59.630Z,1008.82
2018-08-07T17:45:59.658Z,1008.82
2018-08-07T17:46:59.735Z,1008.77
2018-08-07T17:47:59.739Z,1008.79
2018-08-07T17:48:59.784Z,1008.76
2018-08-07T17:49:59.810Z,1008.76
2018-08-07T17:50:59.848Z,1008.71
2018-08-07T17:51:59.890Z,1008.68
2018-08-07T17:52:59.929Z,1008.71
2018-08-07T17:53:59.960Z,1008.66
2018-08-07T17:54:59.999Z,1008.66
2018-08-07T17:56:00.036Z,1008.66
2018-08-07T17:57:00.074Z,1008.67
2018-08-07T17:58:00.120Z,1008.66
2018-08-07T17:59:00.150Z,1008.66
2018-08-07T18:00:00.180Z,1008.67
2018-08-07T18:01:00.218Z,1008.63
2018-08-07T18:02:00.256Z,1008.59
2018-08-07T18:03:00.292Z,1008.65
2018-08-07T18:04:00.328Z,1008.87
2018-08-07T18:05:00.365Z,1008.97
2018-08-07T18:06:00.398Z,1008.67
2018-08-07T18:07:00.524Z,1008.43
2018-08-07T18:08:00.477Z,1008.39
2018-08-07T18:09:00.511Z,1008.35
2018-08-07T18:10:00.556Z,1008.34
2018-08-07T18:11:00.577Z,1008.35
2018-08-07T18:12:00.617Z,1008.31
2018-08-07T18:13:00.658Z,1008.31
2018-08-07T18:14:00.685Z,1008.32
2018-08-07T18:15:00.731Z,1008.29
2018-08-07T18:16:00.763Z,1008.27
2018-08-07T18:17:00.799Z,1008.26
2018-08-07T18:18:00.837Z,1008.28
2018-08-07T18:19:00.869Z,1008.24
2018-08-07T18:20:00.899Z,1008.23
2018-08-07T18:21:00.943Z,1008.22
2018-08-07T18:22:00.977Z,1008.25
2018-08-07T18:23:01.015Z,1008.23
2018-08-07T18:24:01.049Z,1008.21
2018-08-07T18:25:01.079Z,1008.19
2018-08-07T18:26:01.116Z,1008.19
2018-08-07T18:27:01.209Z,1008.26
2018-08-07T18:28:01.197Z,1008.23
2018-08-07T18:29:01.221Z,1008.24
2018-08-07T18:30:01.257Z,1008.31
2018-08-07T18:31:01.287Z,1008.29
2018-08-07T18:32:01.324Z,1008.25
2018-08-07T18:33:01.361Z,1008.24
2018-08-07T18:34:01.387Z,1008.20
2018-08-07T18:35:01.422Z,1008.18
2018-08-07T18:36:01.461Z,1008.18
2018-08-07T18:37:01.500Z,1008.19
2018-08-07T18:38:01.524Z,1008.16
2018-08-07T18:39:01.670Z,1008.20
2018-08-07T18:40:01.616Z,1008.22
2018-08-07T18:41:01.627Z,1008.21
2018-08-07T18:42:01.661Z,1008.21
2018-08-07T18:43:01.697Z,1008.18
2018-08-07T18:44:01.726Z,1008.16
2018-08-07T18:45:01.766Z,1008.23
2018-08-07T18:46:01.797Z,1008.22
2018-08-07T18:47:01.827Z,1008.20
2018-08-07T18:48:01.862Z,1008.19
2018-08-07T18:49:01.911Z,1008.23
2018-08-07T18:50:01.925Z,1008.26
2018-08-07T18:51:01.977Z,1008.24
2018-08-07T18:52:01.995Z,1008.24
2018-08-07T18:53:02.026Z,1008.25
2018-08-07T18:54:02.059Z,1008.31
2018-08-07T18:55:02.090Z,1008.29
2018-08-07T18:56:02.219Z,1008.30
2018-08-07T18:57:02.198Z,1008.30
2018-08-07T18:58:02.188Z,1008.28
2018-08-07T18:59:02.220Z,1008.29
2018-08-07T19:00:02.255Z,1008.27
2018-08-07T19:01:02.288Z,1008.24
2018-08-07T19:02:02.320Z,1008.31
2018-08-07T19:03:02.343Z,1008.23
2018-08-07T19:04:59.973Z,1008.24
2018-08-07T19:06:00.005Z,1008.21
2018-08-07T19:07:00.036Z,1008.22
2018-08-07T19:08:00.066Z,1008.18
2018-08-07T19:09:00.103Z,1008.20
2018-08-07T19:10:00.135Z,1008.18
2018-08-07T19:11:00.163Z,1008.18
2018-08-07T19:12:00.200Z,1008.18
2018-08-07T19:13:00.226Z,1008.19
2018-08-07T19:14:00.348Z,1008.19
2018-08-07T19:15:00.292Z,1008.21
2018-08-07T19:16:45.494Z,1008.20
2018-08-07T19:17:42.907Z,1008.20
2018-08-07T19:18:42.940Z,1008.20
2018-08-07T19:19:42.971Z,1008.17
2018-08-07T19:20:43.012Z,1008.20
2018-08-07T19:21:43.034Z,1008.21
2018-08-07T19:22:43.067Z,1008.20
2018-08-07T19:23:43.094Z,1008.17
2018-08-07T19:24:43.132Z,1008.18
2018-08-07T19:25:43.158Z,1008.20
2018-08-07T19:26:43.198Z,1008.16
2018-08-07T19:27:43.235Z,1008.20
2018-08-07T19:28:43.255Z,1008.24
2018-08-07T19:29:43.289Z,1008.23
2018-08-07T19:30:43.315Z,1008.19
2018-08-07T19:31:43.348Z,1008.24
2018-08-07T19:32:43.385Z,1008.24
2018-08-07T19:33:43.415Z,1008.19
2018-08-07T19:34:43.446Z,1008.24
2018-08-07T19:35:43.487Z,1008.21
2018-08-07T19:36:43.508Z,1008.23
2018-08-07T19:37:43.540Z,1008.22
2018-08-07T19:38:43.577Z,1008.24
2018-08-07T19:39:43.616Z,1008.22
2018-08-07T19:40:43.633Z,1008.18
2018-08-07T19:41:43.656Z,1008.20
2018-08-07T19:42:43.697Z,1008.23
2018-08-07T19:43:43.726Z,1008.23
2018-08-07T19:44:43.756Z,1008.23
2018-08-07T19:45:43.790Z,1008.23
2018-08-07T19:46:43.814Z,1008.22
2018-08-07T19:47:43.852Z,1008.20
2018-08-07T19:48:43.887Z,1008.19
2018-08-07T19:49:43.914Z,1008.21
2018-08-07T19:50:43.945Z,1008.23
2018-08-07T19:51:43.976Z,1008.20
2018-08-07T19:52:44.002Z,1008.21
2018-08-07T19:53:44.039Z,1008.21
2018-08-07T19:54:44.069Z,1008.19
2018-08-07T19:55:44.202Z,1008.23
2018-08-07T19:56:44.132Z,1008.21
2018-08-07T19:57:44.163Z,1008.18
2018-08-07T19:58:44.195Z,1008.20
2018-08-07T19:59:44.222Z,1008.22
2018-08-07T20:00:44.254Z,1008.26
2018-08-07T20:01:44.284Z,1008.23
2018-08-07T20:02:44.320Z,1008.24
2018-08-07T20:03:44.355Z,1008.23
2018-08-07T20:04:45.603Z,1008.26
2018-08-07T20:05:44.412Z,1008.23
2018-08-07T20:06:44.443Z,1008.21
2018-08-07T20:07:44.473Z,1008.23
2018-08-07T20:08:44.510Z,1008.19
2018-08-07T20:09:44.534Z,1008.21
2018-08-07T20:10:44.585Z,1008.19
2018-08-07T20:11:44.597Z,1008.19
2018-08-07T20:12:44.624Z,1008.18
2018-08-07T20:13:44.668Z,1008.16
2018-08-07T20:14:44.701Z,1008.15
2018-08-07T20:15:44.721Z,1008.16
2018-08-07T20:16:44.755Z,1008.13
2018-08-07T20:17:44.784Z,1008.11
2018-08-07T20:18:44.810Z,1008.14
2018-08-07T20:19:44.855Z,1008.10
2018-08-07T20:20:44.874Z,1008.10
2018-08-07T20:21:45.141Z,1008.13
2018-08-07T20:22:44.960Z,1008.13
2018-08-07T20:23:45.195Z,1008.14
2018-08-07T20:24:45.001Z,1008.16
2018-08-07T20:26:45.060Z,1008.19
2018-08-07T20:27:45.087Z,1008.17
2018-08-07T20:28:45.121Z,1008.14
2018-08-07T20:29:45.167Z,1008.11
2018-08-07T20:30:45.217Z,1008.14
2018-08-07T20:31:45.211Z,1008.09
2018-08-07T20:32:45.244Z,1008.06
2018-08-07T20:33:45.272Z,1008.07
2018-08-07T20:34:45.306Z,1008.08
2018-08-07T20:35:45.334Z,1008.09
2018-08-07T20:36:45.365Z,1008.05
2018-08-07T20:37:45.397Z,1008.04
2018-08-07T20:38:45.434Z,1008.01
2018-08-07T20:39:45.457Z,1007.98
2018-08-07T20:40:45.491Z,1007.98
2018-08-07T20:41:45.527Z,1007.96
2018-08-07T20:42:45.548Z,1007.93
2018-08-07T20:43:45.584Z,1007.90
2018-08-07T20:44:45.614Z,1007.88
2018-08-07T20:45:45.641Z,1007.83
2018-08-07T22:20:29.489Z,1007.37
2018-08-07T22:21:29.524Z,1007.40
2018-08-07T22:22:29.550Z,1007.39
2018-08-07T22:23:29.580Z,1007.44
2018-08-07T22:24:29.609Z,1007.42
2018-08-07T22:25:29.639Z,1007.48
2018-08-07T22:26:29.673Z,1007.49
2018-08-07T22:27:29.699Z,1007.48
2018-08-07T22:28:29.728Z,1007.49
2018-08-07T22:29:32.381Z,1007.50
2018-08-07T22:30:29.788Z,1007.52
2018-08-07T22:31:29.860Z,1007.50
2018-08-07T22:32:29.844Z,1007.52
2018-08-07T22:33:29.874Z,1007.51
2018-08-07T22:34:29.911Z,1007.54
2018-08-07T22:35:31.148Z,1007.50
2018-08-07T22:36:29.964Z,1007.51
2018-08-07T22:37:29.990Z,1007.46
2018-08-07T22:38:30.018Z,1007.46
2018-08-07T22:39:30.054Z,1007.46
2018-08-07T22:40:30.078Z,1007.43
2018-08-07T22:41:30.109Z,1007.46
2018-08-07T22:42:30.139Z,1007.42
2018-08-07T22:43:30.178Z,1007.41
2018-08-07T22:44:33.426Z,1007.39
2018-08-07T22:45:30.232Z,1007.39
2018-08-07T22:46:30.260Z,1007.36
2018-08-07T22:47:30.288Z,1007.35
2018-08-07T22:48:30.322Z,1007.36
2018-08-07T22:49:30.350Z,1007.35
2018-08-07T22:50:30.373Z,1007.35
2018-08-07T22:51:30.406Z,1007.36
2018-08-07T22:52:30.432Z,1007.35
2018-08-07T22:53:30.463Z,1007.33
2018-08-07T22:54:30.493Z,1007.32
2018-08-07T22:55:30.535Z,1007.28
2018-08-07T22:56:30.553Z,1007.29
2018-08-07T22:57:30.583Z,1007.27
2018-08-07T22:58:30.618Z,1007.27
2018-08-07T22:59:30.649Z,1007.25
2018-08-07T23:00:30.673Z,1007.27
2018-08-07T23:01:30.715Z,1007.25
2018-08-07T23:02:30.732Z,1007.22
2018-08-07T23:03:30.766Z,1007.23
2018-08-07T23:04:30.786Z,1007.23
2018-08-07T23:05:30.816Z,1007.23
2018-08-07T23:06:31.181Z,1007.25
2018-08-07T23:07:30.881Z,1007.25
2018-08-07T23:08:30.909Z,1007.21
2018-08-07T23:09:30.935Z,1007.21
2018-08-07T23:10:30.970Z,1007.18
2018-08-07T23:11:30.999Z,1007.17
2018-08-07T23:12:31.025Z,1007.13
2018-08-07T23:13:31.058Z,1007.12
2018-08-07T23:14:31.085Z,1007.10
2018-08-07T23:15:31.121Z,1007.09
2018-08-07T23:16:31.152Z,1007.09
2018-08-07T23:17:31.174Z,1007.07
2018-08-07T23:18:31.208Z,1007.06
2018-08-07T23:19:31.237Z,1007.04
2018-08-07T23:20:31.263Z,1007.06
2018-08-07T23:21:31.291Z,1007.06
2018-08-07T23:22:31.323Z,1007.06
2018-08-07T23:23:31.355Z,1007.06
2018-08-07T23:24:31.382Z,1007.04
2018-08-07T23:25:31.407Z,1007.07
2018-08-07T23:26:31.435Z,1007.07
2018-08-07T23:27:31.471Z,1007.09
2018-08-07T23:28:31.495Z,1007.08
2018-08-07T23:29:31.531Z,1007.04
2018-08-07T23:30:31.554Z,1007.03
2018-08-07T23:31:31.587Z,1006.98
2018-08-07T23:32:31.617Z,1006.97
2018-08-07T23:33:31.648Z,1006.94
2018-08-07T23:34:31.696Z,1006.93
2018-08-07T23:35:31.703Z,1006.88
2018-08-07T23:36:31.734Z,1006.85
2018-08-07T23:37:31.773Z,1006.85
2018-08-07T23:38:31.795Z,1006.85
2018-08-07T23:39:31.821Z,1006.85
2018-08-07T23:40:31.845Z,1006.89
2018-08-07T23:41:31.875Z,1006.81
2018-08-07T23:42:31.907Z,1006.82
2018-08-07T23:43:31.943Z,1006.79
2018-08-07T23:44:31.970Z,1006.77
2018-08-07T23:45:32.299Z,1006.78
2018-08-07T23:46:32.028Z,1006.74
2018-08-07T23:47:32.051Z,1006.71
2018-08-07T23:48:32.084Z,1006.75
2018-08-07T23:49:32.113Z,1006.76
2018-08-07T23:50:32.139Z,1006.71
2018-08-07T23:51:32.172Z,1006.72
2018-08-07T23:52:32.199Z,1006.72
2018-08-07T23:53:32.229Z,1006.74
2018-08-07T23:54:32.255Z,1006.70
2018-08-07T23:55:32.291Z,1006.67
2018-08-07T23:56:32.319Z,1006.66
2018-08-07T23:57:32.346Z,1006.67
2018-08-07T23:58:32.379Z,1006.65
2018-08-07T23:59:32.403Z,1006.63
